Cisne Branco — PWCB — position and weather

sailwx.info

Track history (hours):
 
Tides and Currents Weather Stations Pressure Air Temp Water Temp Dewpoint Dewpoint Depression Visibility Wind Speed Wind Dir Waves Ship Positions

Cisne Branco (Brazil)

Last reported at 2017-Sep-17 11:33 UTC. Time now 2017-Nov-18 14:12 UTC.
Position N 27°50' W 015°20'.
Warning: this ship's position is months out of date.

Length 78 m; draft 4.8 m.

Type: Sailing vessel. MMSI: 710428000.

Date/timePositionNaut miles runAvg speedWind from/ knotsBaromVisibWave heightAir tempDewpointWater temp
2017-Sep-17 11:33N 27°50' W 015°20'1 8.7
2017-Sep-17 11:29N 27°51' W 015°20'4 8.9
2017-Sep-17 11:00N 27°55' W 015°19'4 8.5
2017-Sep-17 10:30N 27°59' W 015°19'4 7.7
2017-Sep-17 10:00N 28°03' W 015°21'4 7.4
2017-Sep-17 09:31N 28°06' W 015°23'3 5.6
2017-Sep-17 09:01N 28°08' W 015°25'  
2017-Sep-13 08:47N 28°08' W 015°26'0 0.5
2017-Sep-13 08:30N 28°08' W 015°25'1 2.7
2017-Sep-13 08:00N 28°07' W 015°25'0 0.0
2017-Sep-13 07:21N 28°07' W 015°25'0 0.0
2017-Sep-13 06:51N 28°07' W 015°25'0 0.0
2017-Sep-13 06:21N 28°07' W 015°25'0 0.0
2017-Sep-13 05:54N 28°07' W 015°25'0 0.0
2017-Sep-13 05:24N 28°07' W 015°25'0 0.1
2017-Sep-13 04:54N 28°07' W 015°25'0 0.0
2017-Sep-13 04:09N 28°07' W 015°25'0 0.1
2017-Sep-13 03:54N 28°07' W 015°25'0 0.0
2017-Sep-13 03:24N 28°07' W 015°25'0 0.0
2017-Sep-13 02:57N 28°07' W 015°25'0 0.0
2017-Sep-13 02:29N 28°07' W 015°25'0 0.0
2017-Sep-13 01:47N 28°07' W 015°25'0 0.0
2017-Sep-13 01:17N 28°07' W 015°25'0 0.0
2017-Sep-13 00:53N 28°07' W 015°25'0 0.0
2017-Sep-13 00:23N 28°07' W 015°25'0 0.0
2017-Sep-12 23:53N 28°07' W 015°25'0 0.0
2017-Sep-12 23:23N 28°07' W 015°25'0 0.0
2017-Sep-12 22:53N 28°07' W 015°25'0 0.0
2017-Sep-12 22:23N 28°07' W 015°25'0 0.0
2017-Sep-12 21:53N 28°07' W 015°25'0 0.0
2017-Sep-12 21:26N 28°07' W 015°25'0 0.0
2017-Sep-12 20:56N 28°07' W 015°25'0 0.0
2017-Sep-12 20:26N 28°07' W 015°25'0 0.0
2017-Sep-12 19:56N 28°07' W 015°25'0 0.0
2017-Sep-12 19:26N 28°07' W 015°25'0 0.0
2017-Sep-12 18:59N 28°07' W 015°25'0 0.0
2017-Sep-12 18:29N 28°07' W 015°25'0 0.0
2017-Sep-12 17:59N 28°07' W 015°25'0 0.0
2017-Sep-12 16:59N 28°07' W 015°25'0 0.0
2017-Sep-12 16:29N 28°07' W 015°25'0 0.0
2017-Sep-12 15:59N 28°07' W 015°25'0 0.0
2017-Sep-12 15:29N 28°07' W 015°25'0 0.0
2017-Sep-12 14:59N 28°07' W 015°25'0 0.0
2017-Sep-12 14:29N 28°07' W 015°25'0 0.0
2017-Sep-12 13:59N 28°07' W 015°25'0 0.0
2017-Sep-12 13:29N 28°07' W 015°25'0 0.0
2017-Sep-12 12:59N 28°07' W 015°25'0 0.0
2017-Sep-12 12:29N 28°07' W 015°25'0 0.0
2017-Sep-12 11:50N 28°07' W 015°25'0 0.0
2017-Sep-12 11:20N 28°07' W 015°25'0 0.0
2017-Sep-12 10:50N 28°07' W 015°25'0 0.0
2017-Sep-12 10:23N 28°07' W 015°25'0 0.0
2017-Sep-12 09:53N 28°07' W 015°25'0 0.0
2017-Sep-12 09:23N 28°07' W 015°25'0 0.0
2017-Sep-12 08:53N 28°07' W 015°25'0 0.0
2017-Sep-12 08:20N 28°07' W 015°25'0 0.0
2017-Sep-12 07:59N 28°07' W 015°25'0 0.0
2017-Sep-12 07:29N 28°07' W 015°25'0 0.0
2017-Sep-12 06:59N 28°07' W 015°25'0 0.0
2017-Sep-12 06:29N 28°07' W 015°25'0 0.0
2017-Sep-12 05:55N 28°07' W 015°25'0 0.0
2017-Sep-12 05:25N 28°07' W 015°25'0 0.0
2017-Sep-12 04:10N 28°07' W 015°25'0 0.0
2017-Sep-12 03:55N 28°07' W 015°25'0 0.0
2017-Sep-12 03:28N 28°07' W 015°25'0 0.0
2017-Sep-12 02:58N 28°07' W 015°25'0 0.0
2017-Sep-12 02:28N 28°07' W 015°25'0 0.0
2017-Sep-12 01:58N 28°07' W 015°25'0 0.0
2017-Sep-12 01:28N 28°07' W 015°25'0 0.0
2017-Sep-12 01:00N 28°07' W 015°25'0 0.0
2017-Sep-12 00:30N 28°07' W 015°25'0 0.0
2017-Sep-12 00:00N 28°07' W 015°25'0 0.0
2017-Sep-11 23:30N 28°07' W 015°25'0 0.0
2017-Sep-11 23:00N 28°07' W 015°25'0 0.0
2017-Sep-11 22:30N 28°07' W 015°25'0 0.0
2017-Sep-11 22:00N 28°07' W 015°25'0 0.1
2017-Sep-11 21:30N 28°07' W 015°25'0 0.1
2017-Sep-11 21:00N 28°07' W 015°24'0 0.0
2017-Sep-11 20:30N 28°07' W 015°25'0 0.0
2017-Sep-11 20:00N 28°07' W 015°24'0 0.0
2017-Sep-11 19:30N 28°07' W 015°25'0 0.0
2017-Sep-11 19:00N 28°07' W 015°25'0 0.0
2017-Sep-11 18:30N 28°07' W 015°25'0 0.2
2017-Sep-11 18:00N 28°07' W 015°24'1 2.8
2017-Sep-11 17:30N 28°07' W 015°23'4 7.4
2017-Sep-11 17:00N 28°11' W 015°21'4 7.8
2017-Sep-11 16:30N 28°14' W 015°20'4 8.2
2017-Sep-11 16:00N 28°18' W 015°19'4 8.6
2017-Sep-11 15:30N 28°22' W 015°18'4 8.6
2017-Sep-11 15:00N 28°27' W 015°17'  
Track history (hours):
 
Tides and Currents Weather Stations Pressure Air Temp Water Temp Dewpoint Dewpoint Depression Visibility Wind Speed Wind Dir Waves Ship Positions

Cisne Branco (Brazil)

Last reported at 2017-Sep-17 11:33 UTC. Time now 2017-Nov-18 14:12 UTC.
Position N 27°50' W 015°20'.
Warning: this ship's position is months out of date.

Length 78 m; draft 4.8 m.

Type: Sailing vessel. MMSI: 710428000.

Date/timePositionNaut miles runAvg speedWind from/ knotsBaromVisibWave heightAir tempDewpointWater temp
2017-Sep-17 11:33N 27°50' W 015°20'1 8.7
2017-Sep-17 11:29N 27°51' W 015°20'4 8.9
2017-Sep-17 11:00N 27°55' W 015°19'4 8.5
2017-Sep-17 10:30N 27°59' W 015°19'4 7.7
2017-Sep-17 10:00N 28°03' W 015°21'4 7.4
2017-Sep-17 09:31N 28°06' W 015°23'3 5.6
2017-Sep-17 09:01N 28°08' W 015°25'  
2017-Sep-13 08:47N 28°08' W 015°26'0 0.5
2017-Sep-13 08:30N 28°08' W 015°25'1 2.7
2017-Sep-13 08:00N 28°07' W 015°25'0 0.0
2017-Sep-13 07:21N 28°07' W 015°25'0 0.0
2017-Sep-13 06:51N 28°07' W 015°25'0 0.0
2017-Sep-13 06:21N 28°07' W 015°25'0 0.0
2017-Sep-13 05:54N 28°07' W 015°25'0 0.0
2017-Sep-13 05:24N 28°07' W 015°25'0 0.1
2017-Sep-13 04:54N 28°07' W 015°25'0 0.0
2017-Sep-13 04:09N 28°07' W 015°25'0 0.1
2017-Sep-13 03:54N 28°07' W 015°25'0 0.0
2017-Sep-13 03:24N 28°07' W 015°25'0 0.0
2017-Sep-13 02:57N 28°07' W 015°25'0 0.0
2017-Sep-13 02:29N 28°07' W 015°25'0 0.0
2017-Sep-13 01:47N 28°07' W 015°25'0 0.0
2017-Sep-13 01:17N 28°07' W 015°25'0 0.0
2017-Sep-13 00:53N 28°07' W 015°25'0 0.0
2017-Sep-13 00:23N 28°07' W 015°25'0 0.0
2017-Sep-12 23:53N 28°07' W 015°25'0 0.0
2017-Sep-12 23:23N 28°07' W 015°25'0 0.0
2017-Sep-12 22:53N 28°07' W 015°25'0 0.0
2017-Sep-12 22:23N 28°07' W 015°25'0 0.0
2017-Sep-12 21:53N 28°07' W 015°25'0 0.0
2017-Sep-12 21:26N 28°07' W 015°25'0 0.0
2017-Sep-12 20:56N 28°07' W 015°25'0 0.0
2017-Sep-12 20:26N 28°07' W 015°25'0 0.0
2017-Sep-12 19:56N 28°07' W 015°25'0 0.0
2017-Sep-12 19:26N 28°07' W 015°25'0 0.0
2017-Sep-12 18:59N 28°07' W 015°25'0 0.0
2017-Sep-12 18:29N 28°07' W 015°25'0 0.0
2017-Sep-12 17:59N 28°07' W 015°25'0 0.0
2017-Sep-12 16:59N 28°07' W 015°25'0 0.0
2017-Sep-12 16:29N 28°07' W 015°25'0 0.0
2017-Sep-12 15:59N 28°07' W 015°25'0 0.0
2017-Sep-12 15:29N 28°07' W 015°25'0 0.0
2017-Sep-12 14:59N 28°07' W 015°25'0 0.0
2017-Sep-12 14:29N 28°07' W 015°25'0 0.0
2017-Sep-12 13:59N 28°07' W 015°25'0 0.0
2017-Sep-12 13:29N 28°07' W 015°25'0 0.0
2017-Sep-12 12:59N 28°07' W 015°25'0 0.0
2017-Sep-12 12:29N 28°07' W 015°25'0 0.0
2017-Sep-12 11:50N 28°07' W 015°25'0 0.0
2017-Sep-12 11:20N 28°07' W 015°25'0 0.0
2017-Sep-12 10:50N 28°07' W 015°25'0 0.0
2017-Sep-12 10:23N 28°07' W 015°25'0 0.0
2017-Sep-12 09:53N 28°07' W 015°25'0 0.0
2017-Sep-12 09:23N 28°07' W 015°25'0 0.0
2017-Sep-12 08:53N 28°07' W 015°25'0 0.0
2017-Sep-12 08:20N 28°07' W 015°25'0 0.0
2017-Sep-12 07:59N 28°07' W 015°25'0 0.0
2017-Sep-12 07:29N 28°07' W 015°25'0 0.0
2017-Sep-12 06:59N 28°07' W 015°25'0 0.0
2017-Sep-12 06:29N 28°07' W 015°25'0 0.0
2017-Sep-12 05:55N 28°07' W 015°25'0 0.0
2017-Sep-12 05:25N 28°07' W 015°25'0 0.0
2017-Sep-12 04:10N 28°07' W 015°25'0 0.0
2017-Sep-12 03:55N 28°07' W 015°25'0 0.0
2017-Sep-12 03:28N 28°07' W 015°25'0 0.0
2017-Sep-12 02:58N 28°07' W 015°25'0 0.0
2017-Sep-12 02:28N 28°07' W 015°25'0 0.0
2017-Sep-12 01:58N 28°07' W 015°25'0 0.0
2017-Sep-12 01:28N 28°07' W 015°25'0 0.0
2017-Sep-12 01:00N 28°07' W 015°25'0 0.0
2017-Sep-12 00:30N 28°07' W 015°25'0 0.0
2017-Sep-12 00:00N 28°07' W 015°25'0 0.0
2017-Sep-11 23:30N 28°07' W 015°25'0 0.0
2017-Sep-11 23:00N 28°07' W 015°25'0 0.0
2017-Sep-11 22:30N 28°07' W 015°25'0 0.0
2017-Sep-11 22:00N 28°07' W 015°25'0 0.1
2017-Sep-11 21:30N 28°07' W 015°25'0 0.1
2017-Sep-11 21:00N 28°07' W 015°24'0 0.0
2017-Sep-11 20:30N 28°07' W 015°25'0 0.0
2017-Sep-11 20:00N 28°07' W 015°24'0 0.0
2017-Sep-11 19:30N 28°07' W 015°25'0 0.0
2017-Sep-11 19:00N 28°07' W 015°25'0 0.0
2017-Sep-11 18:30N 28°07' W 015°25'0 0.2
2017-Sep-11 18:00N 28°07' W 015°24'1 2.8
2017-Sep-11 17:30N 28°07' W 015°23'4 7.4
2017-Sep-11 17:00N 28°11' W 015°21'4 7.8
2017-Sep-11 16:30N 28°14' W 015°20'4 8.2
2017-Sep-11 16:00N 28°18' W 015°19'4 8.6
2017-Sep-11 15:30N 28°22' W 015°18'4 8.6
2017-Sep-11 15:00N 28°27' W 015°17'  

Dump ship's entire track history